Gelendzhik, Russia
Current Conditions -  °F | °C
As of 7:00 AM on Friday 28 Nov 2014 (Local Time) from URKA Reporting Station
Overcast Overcast  
Wind Chill: 28°   Ceiling: 4000
Heat Index: 32°   Visibility: 6mi
Dew Point: 28°   Wind: 4mph
Humidity: 87%   Direction: 130°SE
Pressure: 30.27"   Gusts: NA
Location:  44.57°N, 38.07°E
Report Text: URKA 280400Z 13002MPS 9999 BKN040 OVC110 M00/M02 Q1025 RMKQFE765/1020
Loading
Personal Weather Stations






























Interactive Weather Map New forecast layout! Learn more

10-Day Weather Forecast

Advertisements
Track Severe Weather on mobile